sensor_id;sensor_type;location;lat;lon;timestamp;P1;durP1;ratioP1;P2;durP2;ratioP2
58208;SDS011;44006;52.028;4.696;2023-04-01T00:01:31;42.25;;;15.45;;
58208;SDS011;44006;52.028;4.696;2023-04-01T00:03:56;43.80;;;16.90;;
58208;SDS011;44006;52.028;4.696;2023-04-01T00:06:23;58.83;;;17.35;;
58208;SDS011;44006;52.028;4.696;2023-04-01T00:08:48;53.85;;;16.15;;
58208;SDS011;44006;52.028;4.696;2023-04-01T00:11:14;46.58;;;14.60;;
58208;SDS011;44006;52.028;4.696;2023-04-01T00:13:40;55.60;;;16.20;;
58208;SDS011;44006;52.028;4.696;2023-04-01T00:16:06;40.60;;;15.40;;
58208;SDS011;44006;52.028;4.696;2023-04-01T00:18:32;41.63;;;14.13;;
58208;SDS011;44006;52.028;4.696;2023-04-01T00:20:57;47.20;;;12.93;;
58208;SDS011;44006;52.028;4.696;2023-04-01T00:23:23;45.88;;;12.07;;
58208;SDS011;44006;52.028;4.696;2023-04-01T00:25:48;43.22;;;12.85;;
58208;SDS011;44006;52.028;4.696;2023-04-01T00:28:17;53.58;;;13.13;;
58208;SDS011;44006;52.028;4.696;2023-04-01T00:30:43;53.63;;;14.43;;
58208;SDS011;44006;52.028;4.696;2023-04-01T00:33:08;61.13;;;15.60;;
58208;SDS011;44006;52.028;4.696;2023-04-01T00:35:33;51.33;;;13.73;;
58208;SDS011;44006;52.028;4.696;2023-04-01T00:37:59;57.72;;;12.98;;
58208;SDS011;44006;52.028;4.696;2023-04-01T00:40:27;50.17;;;13.43;;
58208;SDS011;44006;52.028;4.696;2023-04-01T00:42:54;47.30;;;12.23;;
58208;SDS011;44006;52.028;4.696;2023-04-01T00:45:39;47.50;;;13.77;;
58208;SDS011;44006;52.028;4.696;2023-04-01T00:48:06;42.20;;;11.70;;
58208;SDS011;44006;52.028;4.696;2023-04-01T00:50:32;44.35;;;14.80;;
58208;SDS011;44006;52.028;4.696;2023-04-01T00:53:00;42.55;;;15.98;;
58208;SDS011;44006;52.028;4.696;2023-04-01T00:55:26;39.70;;;15.10;;
58208;SDS011;44006;52.028;4.696;2023-04-01T01:00:22;51.28;;;16.15;;
58208;SDS011;44006;52.028;4.696;2023-04-01T01:02:47;44.42;;;16.77;;
58208;SDS011;44006;52.028;4.696;2023-04-01T01:05:13;46.30;;;17.52;;
58208;SDS011;44006;52.028;4.696;2023-04-01T01:12:40;60.35;;;20.70;;
58208;SDS011;44006;52.028;4.696;2023-04-01T01:15:16;52.20;;;19.60;;
58208;SDS011;44006;52.028;4.696;2023-04-01T01:27:58;48.92;;;15.88;;
58208;SDS011;44006;52.028;4.696;2023-04-01T01:31:27;40.42;;;14.43;;
58208;SDS011;44006;52.028;4.696;2023-04-01T01:33:39;36.15;;;14.00;;
58208;SDS011;44006;52.028;4.696;2023-04-01T01:36:09;32.45;;;13.63;;
58208;SDS011;44006;52.028;4.696;2023-04-01T01:38:37;37.10;;;13.55;;
58208;SDS011;44006;52.028;4.696;2023-04-01T01:41:03;33.05;;;13.02;;
58208;SDS011;44006;52.028;4.696;2023-04-01T01:43:30;32.83;;;12.23;;
58208;SDS011;44006;52.028;4.696;2023-04-01T01:45:57;33.10;;;12.52;;
58208;SDS011;44006;52.028;4.696;2023-04-01T01:48:24;29.30;;;12.57;;
58208;SDS011;44006;52.028;4.696;2023-04-01T01:50:50;29.42;;;11.10;;
58208;SDS011;44006;52.028;4.696;2023-04-01T01:53:15;25.70;;;10.25;;
58208;SDS011;44006;52.028;4.696;2023-04-01T01:55:42;30.48;;;11.27;;
58208;SDS011;44006;52.028;4.696;2023-04-01T01:58:10;28.88;;;10.23;;
58208;SDS011;44006;52.028;4.696;2023-04-01T02:00:37;27.08;;;10.85;;
58208;SDS011;44006;52.028;4.696;2023-04-01T02:03:02;31.55;;;11.40;;
58208;SDS011;44006;52.028;4.696;2023-04-01T02:05:29;36.50;;;11.93;;
58208;SDS011;44006;52.028;4.696;2023-04-01T02:08:18;29.77;;;11.20;;
58208;SDS011;44006;52.028;4.696;2023-04-01T02:10:43;31.67;;;11.50;;
58208;SDS011;44006;52.028;4.696;2023-04-01T02:13:16;33.33;;;11.00;;
58208;SDS011;44006;52.028;4.696;2023-04-01T02:15:43;33.53;;;11.80;;
58208;SDS011;44006;52.028;4.696;2023-04-01T02:18:10;25.63;;;10.45;;
58208;SDS011;44006;52.028;4.696;2023-04-01T02:20:36;28.95;;;11.63;;
58208;SDS011;44006;52.028;4.696;2023-04-01T02:23:02;33.28;;;10.45;;
58208;SDS011;44006;52.028;4.696;2023-04-01T02:25:28;41.97;;;11.32;;
58208;SDS011;44006;52.028;4.696;2023-04-01T02:27:54;30.23;;;10.07;;
58208;SDS011;44006;52.028;4.696;2023-04-01T02:30:21;34.15;;;11.63;;
58208;SDS011;44006;52.028;4.696;2023-04-01T02:32:46;37.30;;;11.32;;
58208;SDS011;44006;52.028;4.696;2023-04-01T02:35:14;33.88;;;10.18;;
58208;SDS011;44006;52.028;4.696;2023-04-01T02:37:40;34.83;;;11.40;;
58208;SDS011;44006;52.028;4.696;2023-04-01T02:40:07;24.88;;;10.35;;
58208;SDS011;44006;52.028;4.696;2023-04-01T02:42:34;30.27;;;10.70;;
58208;SDS011;44006;52.028;4.696;2023-04-01T02:45:00;32.25;;;11.40;;
58208;SDS011;44006;52.028;4.696;2023-04-01T02:47:26;25.65;;;10.30;;
58208;SDS011;44006;52.028;4.696;2023-04-01T02:49:51;31.80;;;11.93;;
58208;SDS011;44006;52.028;4.696;2023-04-01T02:52:22;22.98;;;10.73;;
58208;SDS011;44006;52.028;4.696;2023-04-01T02:54:48;28.15;;;11.15;;
58208;SDS011;44006;52.028;4.696;2023-04-01T02:57:13;26.48;;;11.73;;
58208;SDS011;44006;52.028;4.696;2023-04-01T02:59:38;26.48;;;11.05;;
58208;SDS011;44006;52.028;4.696;2023-04-01T03:02:04;24.75;;;11.57;;
58208;SDS011;44006;52.028;4.696;2023-04-01T03:04:29;33.25;;;13.00;;
58208;SDS011;44006;52.028;4.696;2023-04-01T03:06:54;33.83;;;14.82;;
58208;SDS011;44006;52.028;4.696;2023-04-01T03:09:20;34.80;;;14.98;;
58208;SDS011;44006;52.028;4.696;2023-04-01T03:11:45;40.13;;;16.98;;
58208;SDS011;44006;52.028;4.696;2023-04-01T03:14:11;36.00;;;18.08;;
58208;SDS011;44006;52.028;4.696;2023-04-01T03:16:36;49.33;;;19.13;;
58208;SDS011;44006;52.028;4.696;2023-04-01T03:19:01;42.17;;;19.08;;
58208;SDS011;44006;52.028;4.696;2023-04-01T03:21:27;42.90;;;19.55;;
58208;SDS011;44006;52.028;4.696;2023-04-01T03:23:52;52.00;;;20.27;;
58208;SDS011;44006;52.028;4.696;2023-04-01T03:26:18;38.22;;;18.15;;
58208;SDS011;44006;52.028;4.696;2023-04-01T03:28:43;42.25;;;19.00;;
58208;SDS011;44006;52.028;4.696;2023-04-01T03:31:08;42.15;;;19.17;;
58208;SDS011;44006;52.028;4.696;2023-04-01T03:33:34;45.60;;;17.48;;
58208;SDS011;44006;52.028;4.696;2023-04-01T03:35:59;36.08;;;16.15;;
58208;SDS011;44006;52.028;4.696;2023-04-01T03:38:24;37.00;;;16.10;;
58208;SDS011;44006;52.028;4.696;2023-04-01T03:40:50;35.33;;;14.85;;
58208;SDS011;44006;52.028;4.696;2023-04-01T03:43:16;35.78;;;14.45;;
58208;SDS011;44006;52.028;4.696;2023-04-01T03:45:45;29.05;;;13.90;;
58208;SDS011;44006;52.028;4.696;2023-04-01T03:48:10;30.20;;;13.63;;
58208;SDS011;44006;52.028;4.696;2023-04-01T03:50:36;29.13;;;13.85;;
58208;SDS011;44006;52.028;4.696;2023-04-01T03:53:02;26.10;;;13.18;;
58208;SDS011;44006;52.028;4.696;2023-04-01T03:55:27;31.60;;;13.18;;
58208;SDS011;44006;52.028;4.696;2023-04-01T03:57:53;29.38;;;13.20;;
58208;SDS011;44006;52.028;4.696;2023-04-01T04:00:18;29.42;;;13.07;;
58208;SDS011;44006;52.028;4.696;2023-04-01T04:02:44;28.67;;;13.85;;
58208;SDS011;44006;52.028;4.696;2023-04-01T04:05:09;26.50;;;13.52;;
58208;SDS011;44006;52.028;4.696;2023-04-01T04:07:35;29.27;;;13.55;;
58208;SDS011;44006;52.028;4.696;2023-04-01T04:10:00;29.60;;;13.68;;
58208;SDS011;44006;52.028;4.696;2023-04-01T04:12:26;27.90;;;14.13;;
58208;SDS011;44006;52.028;4.696;2023-04-01T04:14:51;29.20;;;14.45;;
58208;SDS011;44006;52.028;4.696;2023-04-01T04:17:16;31.30;;;14.70;;
58208;SDS011;44006;52.028;4.696;2023-04-01T04:19:42;32.75;;;15.20;;
58208;SDS011;44006;52.028;4.696;2023-04-01T04:22:07;30.00;;;15.30;;
58208;SDS011;44006;52.028;4.696;2023-04-01T04:24:36;33.25;;;15.88;;
58208;SDS011;44006;52.028;4.696;2023-04-01T04:27:03;34.45;;;15.75;;
58208;SDS011;44006;52.028;4.696;2023-04-01T04:29:29;32.25;;;15.27;;
58208;SDS011;44006;52.028;4.696;2023-04-01T04:31:54;36.35;;;16.40;;
58208;SDS011;44006;52.028;4.696;2023-04-01T04:34:21;33.65;;;16.27;;
58208;SDS011;44006;52.028;4.696;2023-04-01T04:36:47;29.80;;;15.43;;
58208;SDS011;44006;52.028;4.696;2023-04-01T04:39:13;33.22;;;15.32;;
58208;SDS011;44006;52.028;4.696;2023-04-01T04:41:38;33.10;;;15.43;;
58208;SDS011;44006;52.028;4.696;2023-04-01T04:44:04;29.02;;;14.43;;
58208;SDS011;44006;52.028;4.696;2023-04-01T04:46:30;32.17;;;15.23;;
58208;SDS011;44006;52.028;4.696;2023-04-01T04:48:55;33.42;;;14.85;;
58208;SDS011;44006;52.028;4.696;2023-04-01T04:51:21;37.15;;;15.07;;
58208;SDS011;44006;52.028;4.696;2023-04-01T04:53:46;33.45;;;15.38;;
58208;SDS011;44006;52.028;4.696;2023-04-01T04:56:12;33.70;;;15.02;;
58208;SDS011;44006;52.028;4.696;2023-04-01T04:58:38;37.88;;;16.65;;
58208;SDS011;44006;52.028;4.696;2023-04-01T05:01:09;34.22;;;17.35;;
58208;SDS011;44006;52.028;4.696;2023-04-01T05:03:36;44.35;;;18.45;;
58208;SDS011;44006;52.028;4.696;2023-04-01T05:06:01;37.08;;;18.23;;
58208;SDS011;44006;52.028;4.696;2023-04-01T05:08:32;43.47;;;19.17;;
58208;SDS011;44006;52.028;4.696;2023-04-01T05:10:58;39.47;;;19.30;;
58208;SDS011;44006;52.028;4.696;2023-04-01T05:13:23;44.67;;;18.92;;
58208;SDS011;44006;52.028;4.696;2023-04-01T05:15:49;37.03;;;17.85;;
58208;SDS011;44006;52.028;4.696;2023-04-01T05:18:14;42.97;;;18.15;;
58208;SDS011;44006;52.028;4.696;2023-04-01T05:20:45;38.95;;;17.70;;
58208;SDS011;44006;52.028;4.696;2023-04-01T05:23:10;40.90;;;17.55;;
58208;SDS011;44006;52.028;4.696;2023-04-01T05:25:37;37.75;;;17.25;;
58208;SDS011;44006;52.028;4.696;2023-04-01T05:28:03;38.03;;;16.00;;
58208;SDS011;44006;52.028;4.696;2023-04-01T05:30:28;34.40;;;14.95;;
58208;SDS011;44006;52.028;4.696;2023-04-01T05:32:53;36.67;;;14.82;;
58208;SDS011;44006;52.028;4.696;2023-04-01T05:35:20;27.20;;;13.23;;
58208;SDS011;44006;52.028;4.696;2023-04-01T05:37:45;25.73;;;13.55;;
58208;SDS011;44006;52.028;4.696;2023-04-01T05:40:11;30.80;;;13.98;;
58208;SDS011;44006;52.028;4.696;2023-04-01T05:42:37;34.50;;;14.77;;
58208;SDS011;44006;52.028;4.696;2023-04-01T05:45:03;33.70;;;14.52;;
58208;SDS011;44006;52.028;4.696;2023-04-01T05:47:28;34.40;;;15.73;;
58208;SDS011;44006;52.028;4.696;2023-04-01T05:49:54;40.85;;;16.67;;
58208;SDS011;44006;52.028;4.696;2023-04-01T05:52:20;32.65;;;16.65;;
58208;SDS011;44006;52.028;4.696;2023-04-01T05:54:45;34.58;;;16.40;;
58208;SDS011;44006;52.028;4.696;2023-04-01T05:57:11;40.75;;;16.20;;
58208;SDS011;44006;52.028;4.696;2023-04-01T05:59:36;35.47;;;15.73;;
58208;SDS011;44006;52.028;4.696;2023-04-01T06:02:01;38.58;;;16.20;;
58208;SDS011;44006;52.028;4.696;2023-04-01T06:04:28;41.88;;;16.50;;
58208;SDS011;44006;52.028;4.696;2023-04-01T06:06:56;35.47;;;15.13;;
58208;SDS011;44006;52.028;4.696;2023-04-01T06:09:29;30.08;;;14.40;;
58208;SDS011;44006;52.028;4.696;2023-04-01T06:19:32;32.33;;;14.30;;
58208;SDS011;44006;52.028;4.696;2023-04-01T06:27:20;41.83;;;16.15;;
58208;SDS011;44006;52.028;4.696;2023-04-01T06:29:50;43.72;;;18.73;;
58208;SDS011;44006;52.028;4.696;2023-04-01T06:39:47;47.20;;;20.42;;
58208;SDS011;44006;52.028;4.696;2023-04-01T06:45:06;46.85;;;22.25;;
58208;SDS011;44006;52.028;4.696;2023-04-01T06:50:11;57.88;;;24.98;;
58208;SDS011;44006;52.028;4.696;2023-04-01T06:52:47;58.53;;;25.38;;
58208;SDS011;44006;52.028;4.696;2023-04-01T06:57:49;50.78;;;23.58;;
58208;SDS011;44006;52.028;4.696;2023-04-01T07:00:24;50.20;;;23.88;;
58208;SDS011;44006;52.028;4.696;2023-04-01T07:02:56;55.63;;;23.48;;
58208;SDS011;44006;52.028;4.696;2023-04-01T07:05:25;50.38;;;22.02;;
58208;SDS011;44006;52.028;4.696;2023-04-01T07:07:55;56.33;;;22.80;;
58208;SDS011;44006;52.028;4.696;2023-04-01T07:10:32;50.83;;;21.80;;
58208;SDS011;44006;52.028;4.696;2023-04-01T07:13:04;49.03;;;22.20;;
58208;SDS011;44006;52.028;4.696;2023-04-01T07:15:33;46.63;;;21.15;;
58208;SDS011;44006;52.028;4.696;2023-04-01T07:18:12;50.80;;;21.67;;
58208;SDS011;44006;52.028;4.696;2023-04-01T07:20:41;45.40;;;21.25;;
58208;SDS011;44006;52.028;4.696;2023-04-01T07:23:16;37.30;;;20.23;;
58208;SDS011;44006;52.028;4.696;2023-04-01T07:25:45;48.53;;;21.08;;
58208;SDS011;44006;52.028;4.696;2023-04-01T07:28:13;40.42;;;21.13;;
58208;SDS011;44006;52.028;4.696;2023-04-01T07:30:52;43.80;;;21.48;;
58208;SDS011;44006;52.028;4.696;2023-04-01T07:33:28;39.65;;;21.23;;
58208;SDS011;44006;52.028;4.696;2023-04-01T07:36:00;41.63;;;21.10;;
58208;SDS011;44006;52.028;4.696;2023-04-01T07:40:55;42.00;;;19.83;;
58208;SDS011;44006;52.028;4.696;2023-04-01T07:46:08;43.53;;;19.77;;
58208;SDS011;44006;52.028;4.696;2023-04-01T07:53:50;38.40;;;17.85;;
58208;SDS011;44006;52.028;4.696;2023-04-01T08:09:34;39.85;;;17.27;;
58208;SDS011;44006;52.028;4.696;2023-04-01T08:14:56;43.20;;;16.15;;
58208;SDS011;44006;52.028;4.696;2023-04-01T08:17:51;42.60;;;16.52;;
58208;SDS011;44006;52.028;4.696;2023-04-01T08:22:53;39.35;;;16.25;;
58208;SDS011;44006;52.028;4.696;2023-04-01T08:25:24;37.72;;;16.20;;
58208;SDS011;44006;52.028;4.696;2023-04-01T08:30:56;40.70;;;16.42;;
58208;SDS011;44006;52.028;4.696;2023-04-01T08:33:30;39.40;;;16.52;;
58208;SDS011;44006;52.028;4.696;2023-04-01T08:36:02;40.05;;;16.08;;
58208;SDS011;44006;52.028;4.696;2023-04-01T08:41:01;40.20;;;15.00;;
58208;SDS011;44006;52.028;4.696;2023-04-01T08:56:33;41.15;;;16.08;;
58208;SDS011;44006;52.028;4.696;2023-04-01T08:59:12;37.67;;;16.15;;
58208;SDS011;44006;52.028;4.696;2023-04-01T09:14:48;35.15;;;14.48;;
58208;SDS011;44006;52.028;4.696;2023-04-01T09:20:06;34.00;;;13.20;;
58208;SDS011;44006;52.028;4.696;2023-04-01T09:22:45;32.60;;;13.35;;
58208;SDS011;44006;52.028;4.696;2023-04-01T09:27:54;25.05;;;11.25;;
58208;SDS011;44006;52.028;4.696;2023-04-01T09:35:45;42.70;;;14.48;;
58208;SDS011;44006;52.028;4.696;2023-04-01T09:38:22;43.90;;;15.25;;
58208;SDS011;44006;52.028;4.696;2023-04-01T09:40:56;44.15;;;14.73;;
58208;SDS011;44006;52.028;4.696;2023-04-01T09:47:10;42.10;;;15.48;;
58208;SDS011;44006;52.028;4.696;2023-04-01T09:54:18;26.85;;;10.55;;
58208;SDS011;44006;52.028;4.696;2023-04-01T10:07:51;19.83;;;7.82;;
58208;SDS011;44006;52.028;4.696;2023-04-01T10:17:49;21.80;;;8.85;;
58208;SDS011;44006;52.028;4.696;2023-04-01T10:20:39;21.60;;;9.63;;
58208;SDS011;44006;52.028;4.696;2023-04-01T10:28:26;25.00;;;12.20;;
58208;SDS011;44006;52.028;4.696;2023-04-01T10:38:53;27.50;;;11.77;;
58208;SDS011;44006;52.028;4.696;2023-04-01T10:44:00;30.40;;;11.38;;
58208;SDS011;44006;52.028;4.696;2023-04-01T10:56:49;25.15;;;12.07;;
58208;SDS011;44006;52.028;4.696;2023-04-01T11:27:51;15.88;;;8.20;;
58208;SDS011;44006;52.028;4.696;2023-04-01T11:40:41;32.20;;;13.75;;
58208;SDS011;44006;52.028;4.696;2023-04-01T11:43:21;27.98;;;12.48;;
58208;SDS011;44006;52.028;4.696;2023-04-01T11:45:55;25.98;;;12.25;;
58208;SDS011;44006;52.028;4.696;2023-04-01T11:50:59;23.70;;;10.40;;
58208;SDS011;44006;52.028;4.696;2023-04-01T11:53:31;22.90;;;10.55;;
58208;SDS011;44006;52.028;4.696;2023-04-01T12:00:59;25.15;;;11.15;;
58208;SDS011;44006;52.028;4.696;2023-04-01T12:16:51;25.92;;;12.45;;
58208;SDS011;44006;52.028;4.696;2023-04-01T12:27:07;26.65;;;13.77;;
58208;SDS011;44006;52.028;4.696;2023-04-01T12:32:25;27.05;;;14.38;;
58208;SDS011;44006;52.028;4.696;2023-04-01T12:35:02;33.17;;;16.20;;
58208;SDS011;44006;52.028;4.696;2023-04-01T12:40:26;35.22;;;18.30;;
58208;SDS011;44006;52.028;4.696;2023-04-01T12:43:02;37.17;;;17.30;;
58208;SDS011;44006;52.028;4.696;2023-04-01T12:55:18;37.50;;;18.23;;
58208;SDS011;44006;52.028;4.696;2023-04-01T13:05:17;34.42;;;16.50;;
58208;SDS011;44006;52.028;4.696;2023-04-01T13:07:59;35.90;;;16.35;;
58208;SDS011;44006;52.028;4.696;2023-04-01T13:13:08;32.33;;;15.02;;
58208;SDS011;44006;52.028;4.696;2023-04-01T13:15:37;34.28;;;15.82;;
58208;SDS011;44006;52.028;4.696;2023-04-01T13:23:33;33.70;;;15.55;;
58208;SDS011;44006;52.028;4.696;2023-04-01T13:28:29;33.87;;;14.90;;
58208;SDS011;44006;52.028;4.696;2023-04-01T13:31:04;31.60;;;16.42;;
58208;SDS011;44006;52.028;4.696;2023-04-01T13:33:39;35.33;;;16.38;;
58208;SDS011;44006;52.028;4.696;2023-04-01T13:44:28;30.27;;;14.35;;
58208;SDS011;44006;52.028;4.696;2023-04-01T13:46:39;25.45;;;12.50;;
58208;SDS011;44006;52.028;4.696;2023-04-01T14:02:44;22.73;;;10.95;;
58208;SDS011;44006;52.028;4.696;2023-04-01T14:07:47;23.45;;;11.27;;
58208;SDS011;44006;52.028;4.696;2023-04-01T14:20:58;25.75;;;10.93;;
58208;SDS011;44006;52.028;4.696;2023-04-01T14:23:37;26.08;;;10.07;;
58208;SDS011;44006;52.028;4.696;2023-04-01T14:37:01;23.58;;;9.68;;
58208;SDS011;44006;52.028;4.696;2023-04-01T14:45:01;21.02;;;9.00;;
58208;SDS011;44006;52.028;4.696;2023-04-01T14:50:41;20.55;;;9.82;;
58208;SDS011;44006;52.028;4.696;2023-04-01T14:55:31;20.75;;;9.88;;
58208;SDS011;44006;52.028;4.696;2023-04-01T14:58:04;20.67;;;9.10;;
58208;SDS011;44006;52.028;4.696;2023-04-01T15:00:41;19.20;;;8.73;;
58208;SDS011;44006;52.028;4.696;2023-04-01T15:03:13;23.30;;;11.60;;
58208;SDS011;44006;52.028;4.696;2023-04-01T15:05:47;14.77;;;9.27;;
58208;SDS011;44006;52.028;4.696;2023-04-01T15:08:34;14.48;;;9.10;;
58208;SDS011;44006;52.028;4.696;2023-04-01T15:16:25;12.43;;;8.25;;
58208;SDS011;44006;52.028;4.696;2023-04-01T15:26:54;17.02;;;10.40;;
58208;SDS011;44006;52.028;4.696;2023-04-01T15:40:20;15.40;;;9.90;;
58208;SDS011;44006;52.028;4.696;2023-04-01T15:43:31;15.80;;;10.77;;
58208;SDS011;44006;52.028;4.696;2023-04-01T15:45:39;19.02;;;11.30;;
58208;SDS011;44006;52.028;4.696;2023-04-01T15:50:48;20.63;;;12.27;;
58208;SDS011;44006;52.028;4.696;2023-04-01T15:56:21;18.52;;;12.38;;
58208;SDS011;44006;52.028;4.696;2023-04-01T16:22:16;16.58;;;10.93;;
58208;SDS011;44006;52.028;4.696;2023-04-01T16:24:46;17.27;;;11.40;;
58208;SDS011;44006;52.028;4.696;2023-04-01T16:27:35;15.18;;;10.73;;
58208;SDS011;44006;52.028;4.696;2023-04-01T16:32:51;14.77;;;9.88;;
58208;SDS011;44006;52.028;4.696;2023-04-01T16:35:40;17.63;;;10.30;;
58208;SDS011;44006;52.028;4.696;2023-04-01T16:43:19;15.18;;;10.90;;
58208;SDS011;44006;52.028;4.696;2023-04-01T16:48:35;16.35;;;10.30;;
58208;SDS011;44006;52.028;4.696;2023-04-01T16:51:09;16.58;;;11.20;;
58208;SDS011;44006;52.028;4.696;2023-04-01T16:53:47;15.57;;;10.25;;
58208;SDS011;44006;52.028;4.696;2023-04-01T16:56:15;16.88;;;11.13;;
58208;SDS011;44006;52.028;4.696;2023-04-01T16:58:42;13.63;;;10.38;;
58208;SDS011;44006;52.028;4.696;2023-04-01T17:01:13;15.10;;;10.45;;
58208;SDS011;44006;52.028;4.696;2023-04-01T17:03:57;14.25;;;10.23;;
58208;SDS011;44006;52.028;4.696;2023-04-01T17:06:46;14.35;;;10.63;;
58208;SDS011;44006;52.028;4.696;2023-04-01T17:11:43;13.85;;;9.10;;
58208;SDS011;44006;52.028;4.696;2023-04-01T17:14:21;13.25;;;8.98;;
58208;SDS011;44006;52.028;4.696;2023-04-01T17:19:36;12.30;;;8.23;;
58208;SDS011;44006;52.028;4.696;2023-04-01T17:22:13;12.65;;;7.78;;
58208;SDS011;44006;52.028;4.696;2023-04-01T17:33:03;9.60;;;7.30;;
58208;SDS011;44006;52.028;4.696;2023-04-01T17:35:35;8.27;;;6.25;;
58208;SDS011;44006;52.028;4.696;2023-04-01T17:38:18;9.02;;;6.13;;
58208;SDS011;44006;52.028;4.696;2023-04-01T17:43:21;7.13;;;5.82;;
58208;SDS011;44006;52.028;4.696;2023-04-01T17:45:54;8.30;;;6.00;;
58208;SDS011;44006;52.028;4.696;2023-04-01T17:58:50;7.75;;;6.13;;
58208;SDS011;44006;52.028;4.696;2023-04-01T18:11:48;7.15;;;6.22;;
58208;SDS011;44006;52.028;4.696;2023-04-01T18:17:04;9.10;;;6.38;;
58208;SDS011;44006;52.028;4.696;2023-04-01T18:22:20;8.10;;;6.57;;
58208;SDS011;44006;52.028;4.696;2023-04-01T18:25:01;7.70;;;6.13;;
58208;SDS011;44006;52.028;4.696;2023-04-01T18:40:32;11.88;;;6.75;;
58208;SDS011;44006;52.028;4.696;2023-04-01T18:43:11;7.90;;;6.60;;
58208;SDS011;44006;52.028;4.696;2023-04-01T18:51:01;11.02;;;7.43;;
58208;SDS011;44006;52.028;4.696;2023-04-01T18:53:35;12.25;;;7.97;;
58208;SDS011;44006;52.028;4.696;2023-04-01T18:58:37;10.82;;;8.82;;
58208;SDS011;44006;52.028;4.696;2023-04-01T19:01:17;12.73;;;10.13;;
58208;SDS011;44006;52.028;4.696;2023-04-01T19:03:52;11.85;;;10.10;;
58208;SDS011;44006;52.028;4.696;2023-04-01T19:06:29;11.10;;;9.48;;
58208;SDS011;44006;52.028;4.696;2023-04-01T19:08:59;11.20;;;10.00;;
58208;SDS011;44006;52.028;4.696;2023-04-01T19:11:36;14.02;;;11.20;;
58208;SDS011;44006;52.028;4.696;2023-04-01T19:22:13;11.63;;;9.60;;
58208;SDS011;44006;52.028;4.696;2023-04-01T19:24:52;12.82;;;8.73;;
58208;SDS011;44006;52.028;4.696;2023-04-01T19:27:27;12.90;;;9.15;;
58208;SDS011;44006;52.028;4.696;2023-04-01T19:29:58;11.90;;;8.80;;
58208;SDS011;44006;52.028;4.696;2023-04-01T19:35:09;13.73;;;8.90;;
58208;SDS011;44006;52.028;4.696;2023-04-01T19:37:50;12.00;;;9.32;;
58208;SDS011;44006;52.028;4.696;2023-04-01T19:46:10;9.35;;;8.05;;
58208;SDS011;44006;52.028;4.696;2023-04-01T19:56:17;11.07;;;7.95;;
58208;SDS011;44006;52.028;4.696;2023-04-01T19:58:51;12.57;;;8.43;;
58208;SDS011;44006;52.028;4.696;2023-04-01T20:01:27;10.60;;;8.40;;
58208;SDS011;44006;52.028;4.696;2023-04-01T20:04:03;12.82;;;8.93;;
58208;SDS011;44006;52.028;4.696;2023-04-01T20:06:34;12.05;;;8.32;;
58208;SDS011;44006;52.028;4.696;2023-04-01T20:11:53;11.27;;;8.52;;
58208;SDS011;44006;52.028;4.696;2023-04-01T20:22:01;11.20;;;8.27;;
58208;SDS011;44006;52.028;4.696;2023-04-01T20:24:35;10.68;;;7.60;;
58208;SDS011;44006;52.028;4.696;2023-04-01T20:29:38;10.55;;;8.13;;
58208;SDS011;44006;52.028;4.696;2023-04-01T20:32:18;12.48;;;8.13;;
58208;SDS011;44006;52.028;4.696;2023-04-01T20:37:29;10.23;;;7.63;;
58208;SDS011;44006;52.028;4.696;2023-04-01T20:45:22;12.23;;;9.13;;
58208;SDS011;44006;52.028;4.696;2023-04-01T20:50:24;15.52;;;8.98;;
58208;SDS011;44006;52.028;4.696;2023-04-01T20:53:01;13.02;;;9.50;;
58208;SDS011;44006;52.028;4.696;2023-04-01T21:11:07;13.95;;;9.40;;
58208;SDS011;44006;52.028;4.696;2023-04-01T21:16:33;14.63;;;9.68;;
58208;SDS011;44006;52.028;4.696;2023-04-01T21:24:45;14.18;;;10.15;;
58208;SDS011;44006;52.028;4.696;2023-04-01T21:32:38;13.18;;;9.38;;
58208;SDS011;44006;52.028;4.696;2023-04-01T21:53:19;11.80;;;8.57;;
58208;SDS011;44006;52.028;4.696;2023-04-01T22:03:32;17.00;;;10.30;;
58208;SDS011;44006;52.028;4.696;2023-04-01T22:06:06;12.00;;;9.05;;
58208;SDS011;44006;52.028;4.696;2023-04-01T22:08:47;12.05;;;9.07;;
58208;SDS011;44006;52.028;4.696;2023-04-01T22:14:10;11.88;;;9.50;;
58208;SDS011;44006;52.028;4.696;2023-04-01T22:19:06;12.35;;;9.30;;
58208;SDS011;44006;52.028;4.696;2023-04-01T22:29:06;15.85;;;9.65;;
58208;SDS011;44006;52.028;4.696;2023-04-01T22:31:35;13.23;;;10.02;;
58208;SDS011;44006;52.028;4.696;2023-04-01T22:34:06;15.55;;;10.32;;
58208;SDS011;44006;52.028;4.696;2023-04-01T22:52:41;16.08;;;10.93;;
58208;SDS011;44006;52.028;4.696;2023-04-01T22:55:12;15.35;;;10.77;;
58208;SDS011;44006;52.028;4.696;2023-04-01T23:00:14;13.32;;;10.07;;
58208;SDS011;44006;52.028;4.696;2023-04-01T23:02:42;11.45;;;9.38;;
58208;SDS011;44006;52.028;4.696;2023-04-01T23:05:12;14.52;;;10.00;;
58208;SDS011;44006;52.028;4.696;2023-04-01T23:10:25;12.77;;;9.68;;
58208;SDS011;44006;52.028;4.696;2023-04-01T23:12:53;14.90;;;10.05;;
58208;SDS011;44006;52.028;4.696;2023-04-01T23:15:20;16.25;;;11.07;;
58208;SDS011;44006;52.028;4.696;2023-04-01T23:17:50;18.25;;;10.90;;
58208;SDS011;44006;52.028;4.696;2023-04-01T23:20:32;14.32;;;10.52;;
58208;SDS011;44006;52.028;4.696;2023-04-01T23:36:02;15.20;;;11.32;;
58208;SDS011;44006;52.028;4.696;2023-04-01T23:38:38;16.60;;;10.73;;
58208;SDS011;44006;52.028;4.696;2023-04-01T23:41:06;14.88;;;9.80;;
58208;SDS011;44006;52.028;4.696;2023-04-01T23:43:34;18.50;;;10.50;;
58208;SDS011;44006;52.028;4.696;2023-04-01T23:46:02;17.48;;;10.82;;
58208;SDS011;44006;52.028;4.696;2023-04-01T23:48:32;17.55;;;10.95;;
58208;SDS011;44006;52.028;4.696;2023-04-01T23:50:58;17.80;;;11.77;;
58208;SDS011;44006;52.028;4.696;2023-04-01T23:53:28;17.00;;;11.98;;
58208;SDS011;44006;52.028;4.696;2023-04-01T23:55:56;15.90;;;11.32;;
58208;SDS011;44006;52.028;4.696;2023-04-01T23:58:22;17.33;;;11.48;;
